Time;durP1;ratioP1;P1;durP2;ratioP2;P2;SDS_P1;SDS_P2;PMS_P1;PMS_P2;Temp;Humidity;BMP_temperature;BMP_pressure;BME280_temperature;BME280_humidity;BME280_pressure;Samples;Min_cycle;Max_cycle;Signal;HPM_P1;HPM_P2
2022/07/31 00:00:26;;;;;;;3.58;1.40;;;;;;;;;;6180752;23;20046;-83
2022/07/31 00:02:53;;;;;;;3.88;1.80;;;;;;;;;;6180972;23;20021;-83
2022/07/31 00:05:21;;;;;;;2.03;1.40;;;;;;;;;;6181628;23;20029;-83
2022/07/31 00:07:48;;;;;;;2.40;2.00;;;;;;;;;;6178835;23;20080;-82
2022/07/31 00:10:16;;;;;;;4.78;1.80;;;;;;;;;;6179946;23;20537;-83
2022/07/31 00:12:43;;;;;;;6.10;1.80;;;;;;;;;;6180330;23;20025;-82
2022/07/31 00:15:11;;;;;;;3.65;1.55;;;;;;;;;;6180198;23;20060;-82
2022/07/31 00:17:39;;;;;;;2.20;1.70;;;;;;;;;;6178775;23;20029;-85
2022/07/31 00:20:06;;;;;;;6.50;2.08;;;;;;;;;;6179999;23;20021;-84
2022/07/31 00:22:34;;;;;;;;;;;;;;;;;;6179432;23;20056;-84
2022/07/31 00:25:01;;;;;;;2.92;1.98;;;;;;;;;;6179982;23;19916;-84
2022/07/31 00:27:29;;;;;;;4.43;1.67;;;;;;;;;;6179939;23;20021;-84
2022/07/31 00:29:56;;;;;;;1.90;1.70;;;;;;;;;;6180272;23;20025;-85
2022/07/31 00:32:24;;;;;;;3.33;1.70;;;;;;;;;;6180225;23;20025;-84
2022/07/31 00:34:51;;;;;;;5.55;1.70;;;;;;;;;;6179038;23;20086;-84
2022/07/31 00:37:19;;;;;;;4.10;1.88;;;;;;;;;;6179170;23;20032;-85
2022/07/31 00:39:47;;;;;;;5.32;1.83;;;;;;;;;;6179868;23;20025;-84
2022/07/31 00:42:18;;;;;;;6.20;1.95;;;;;;;;;;6179588;23;20470;-83
2022/07/31 00:44:45;;;;;;;2.45;1.85;;;;;;;;;;6179363;23;20339;-82
2022/07/31 00:47:14;;;;;;;6.20;2.30;;;;;;;;;;6179310;23;20032;-83
2022/07/31 00:49:42;;;;;;;7.90;2.00;;;;;;;;;;6179839;23;20031;-83
2022/07/31 00:52:09;;;;;;;5.20;1.77;;;;;;;;;;6178142;23;20025;-82
2022/07/31 00:54:36;;;;;;;3.03;1.77;;;;;;;;;;6178706;23;20401;-83
2022/07/31 00:57:04;;;;;;;4.70;1.85;;;;;;;;;;6179801;23;20493;-83
2022/07/31 00:59:32;;;;;;;6.15;1.90;;;;;;;;;;6179968;23;20028;-84
2022/07/31 01:01:59;;;;;;;5.93;1.65;;;;;;;;;;6180991;23;20028;-83
2022/07/31 01:04:26;;;;;;;2.13;1.73;;;;;;;;;;6181862;23;20053;-83
2022/07/31 01:06:58;;;;;;;3.42;1.80;;;;;;;;;;6181742;23;20025;-82
2022/07/31 01:09:25;;;;;;;3.58;1.83;;;;;;;;;;6181124;23;20043;-84
2022/07/31 01:11:58;;;;;;;8.55;2.00;;;;;;;;;;6181427;23;20083;-82
2022/07/31 01:14:28;;;;;;;4.47;1.73;;;;;;;;;;6181445;23;20521;-84
2022/07/31 01:16:56;;;;;;;1.83;1.33;;;;;;;;;;6179452;23;20021;-82
2022/07/31 01:19:26;;;;;;;2.35;1.75;;;;;;;;;;6181646;23;20076;-85
2022/07/31 01:22:27;;;;;;;3.55;1.67;;;;;;;;;;6182752;23;20021;-84
2022/07/31 01:25:10;;;;;;;3.40;1.50;;;;;;;;;;6180996;23;20083;-85
2022/07/31 01:27:56;;;;;;;1.73;1.58;;;;;;;;;;6180568;23;20029;-85
2022/07/31 01:30:24;;;;;;;3.50;1.90;;;;;;;;;;6181683;23;20366;-84
2022/07/31 01:32:57;;;;;;;4.65;2.00;;;;;;;;;;6182042;23;20025;-85
2022/07/31 01:35:29;;;;;;;2.72;1.60;;;;;;;;;;6182007;23;20025;-86
2022/07/31 01:38:03;;;;;;;3.00;1.75;;;;;;;;;;6181914;23;20021;-83
2022/07/31 01:40:39;;;;;;;2.60;2.03;;;;;;;;;;6181710;23;20350;-83
2022/07/31 01:43:08;;;;;;;3.83;1.88;;;;;;;;;;6182255;23;20020;-84
2022/07/31 01:45:37;;;;;;;2.58;1.60;;;;;;;;;;6182290;23;20029;-84
2022/07/31 01:48:05;;;;;;;5.22;2.13;;;;;;;;;;6181741;23;20016;-84
2022/07/31 01:50:33;;;;;;;5.80;2.03;;;;;;;;;;6182421;23;20099;-83
2022/07/31 01:53:12;;;;;;;4.65;2.08;;;;;;;;;;6181987;23;20067;-83
2022/07/31 01:55:40;;;;;;;2.58;1.67;;;;;;;;;;6181941;23;20072;-84
2022/07/31 01:58:29;;;;;;;3.53;1.83;;;;;;;;;;6182419;23;20104;-81
2022/07/31 02:00:57;;;;;;;6.10;2.15;;;;;;;;;;6181605;23;20025;-82
2022/07/31 02:03:27;;;;;;;8.05;1.95;;;;;;;;;;6180860;23;20024;-81
2022/07/31 02:06:15;;;;;;;4.80;1.88;;;;;;;;;;6181391;23;20096;-84
2022/07/31 02:08:46;;;;;;;6.68;2.20;;;;;;;;;;6180729;23;20071;-83
2022/07/31 02:11:17;;;;;;;6.68;2.03;;;;;;;;;;6179679;23;20029;-82
2022/07/31 02:13:46;;;;;;;2.60;1.60;;;;;;;;;;6181177;23;20525;-83
2022/07/31 02:16:14;;;;;;;3.90;1.92;;;;;;;;;;6180421;23;20029;-83
2022/07/31 02:18:41;;;;;;;2.38;1.92;;;;;;;;;;6180678;23;20021;-83
2022/07/31 02:21:09;;;;;;;2.95;1.75;;;;;;;;;;6180972;23;20048;-83
2022/07/31 02:23:37;;;;;;;2.92;1.90;;;;;;;;;;6181192;23;20029;-84
2022/07/31 02:26:05;;;;;;;5.13;2.10;;;;;;;;;;6181107;23;20021;-83
2022/07/31 02:28:35;;;;;;;3.35;1.88;;;;;;;;;;6180375;23;20027;-84
2022/07/31 02:31:02;;;;;;;3.22;1.65;;;;;;;;;;6180117;23;20083;-84
2022/07/31 02:33:30;;;;;;;3.13;1.70;;;;;;;;;;6181219;23;20021;-84
2022/07/31 02:35:58;;;;;;;4.65;2.00;;;;;;;;;;6180490;23;20029;-83
2022/07/31 02:38:26;;;;;;;3.90;1.63;;;;;;;;;;6177413;23;20075;-84
2022/07/31 02:40:55;;;;;;;4.13;1.85;;;;;;;;;;6180746;23;20083;-84
2022/07/31 02:43:24;;;;;;;3.60;1.95;;;;;;;;;;6180245;23;20021;-84
2022/07/31 02:45:51;;;;;;;5.65;1.88;;;;;;;;;;6180605;23;20059;-83
2022/07/31 02:48:18;;;;;;;2.50;2.00;;;;;;;;;;6180813;23;20053;-83
2022/07/31 02:50:46;;;;;;;2.08;1.80;;;;;;;;;;6180434;23;20482;-83
2022/07/31 02:53:14;;;;;;;3.78;1.63;;;;;;;;;;6181198;23;20075;-82
2022/07/31 02:55:44;;;;;;;2.58;1.77;;;;;;;;;;6179866;23;20029;-84
2022/07/31 02:58:12;;;;;;;2.55;1.52;;;;;;;;;;6180249;23;20332;-84
2022/07/31 03:00:39;;;;;;;3.92;1.77;;;;;;;;;;6178461;23;20071;-83
2022/07/31 03:03:06;;;;;;;3.58;2.00;;;;;;;;;;6181143;23;20081;-83
2022/07/31 03:05:34;;;;;;;5.25;2.17;;;;;;;;;;6179852;23;20075;-83
2022/07/31 03:08:01;;;;;;;4.25;1.73;;;;;;;;;;6180146;23;20060;-82
2022/07/31 03:10:28;;;;;;;3.20;1.83;;;;;;;;;;6179712;23;20075;-84
2022/07/31 03:12:56;;;;;;;5.57;2.00;;;;;;;;;;6178531;23;20083;-82
2022/07/31 03:15:25;;;;;;;4.60;1.88;;;;;;;;;;6180421;23;20021;-83
2022/07/31 03:17:53;;;;;;;3.88;1.58;;;;;;;;;;6176981;23;20405;-84
2022/07/31 03:20:20;;;;;;;3.38;1.80;;;;;;;;;;6176976;23;20100;-83
2022/07/31 03:22:48;;;;;;;3.67;1.73;;;;;;;;;;6179739;23;20025;-84
2022/07/31 03:25:15;;;;;;;6.68;2.20;;;;;;;;;;6180761;23;20025;-84
2022/07/31 03:27:48;;;;;;;6.45;2.17;;;;;;;;;;6180673;23;20025;-84
2022/07/31 03:30:26;;;;;;;6.03;2.00;;;;;;;;;;6180889;23;20470;-85
2022/07/31 03:32:55;;;;;;;4.80;1.88;;;;;;;;;;6181378;23;20044;-82
2022/07/31 03:35:23;;;;;;;5.45;2.15;;;;;;;;;;6179840;23;20402;-85
2022/07/31 03:37:50;;;;;;;3.67;2.08;;;;;;;;;;6179429;23;20025;-83
2022/07/31 03:40:17;;;;;;;4.47;1.90;;;;;;;;;;6180309;23;20032;-84
2022/07/31 03:42:45;;;;;;;7.88;1.90;;;;;;;;;;6180282;23;20343;-83
2022/07/31 03:45:13;;;;;;;5.03;1.90;;;;;;;;;;6180206;23;20378;-82
2022/07/31 03:47:41;;;;;;;5.63;2.40;;;;;;;;;;6180056;23;20354;-83
2022/07/31 03:50:08;;;;;;;6.70;2.00;;;;;;;;;;6180673;23;20021;-82
2022/07/31 03:52:35;;;;;;;5.45;2.17;;;;;;;;;;6179157;23;20024;-82
2022/07/31 03:55:03;;;;;;;3.65;2.17;;;;;;;;;;6180158;23;20040;-82
2022/07/31 03:57:32;;;;;;;4.30;2.05;;;;;;;;;;6179835;23;20029;-82
2022/07/31 04:00:01;;;;;;;6.15;2.53;;;;;;;;;;6180116;23;20063;-81
2022/07/31 04:02:29;;;;;;;6.15;2.08;;;;;;;;;;6179654;23;20481;-81
2022/07/31 04:04:58;;;;;;;4.57;2.50;;;;;;;;;;6179589;23;20096;-81
2022/07/31 04:07:26;;;;;;;5.70;2.30;;;;;;;;;;6179655;23;20044;-82
2022/07/31 04:09:54;;;;;;;6.18;2.30;;;;;;;;;;6180675;23;20389;-81
2022/07/31 04:12:22;;;;;;;3.03;2.13;;;;;;;;;;6181349;23;20075;-81
2022/07/31 04:14:49;;;;;;;10.82;2.30;;;;;;;;;;6181186;23;20028;-82
2022/07/31 04:17:17;;;;;;;4.15;1.98;;;;;;;;;;6180261;23;20378;-82
2022/07/31 04:19:44;;;;;;;4.65;2.45;;;;;;;;;;6180718;23;20025;-82
2022/07/31 04:22:11;;;;;;;4.20;2.20;;;;;;;;;;6180843;23;20033;-81
2022/07/31 04:24:39;;;;;;;4.93;1.70;;;;;;;;;;6180216;23;20532;-82
2022/07/31 04:27:06;;;;;;;;;;;;;;;;;;6181835;23;20036;-82
2022/07/31 04:29:38;;;;;;;4.43;2.03;;;;;;;;;;6181128;23;19927;-83
2022/07/31 04:32:06;;;;;;;;;;;;;;;;;;6180919;23;20024;-81
2022/07/31 04:34:33;;;;;;;7.10;2.60;;;;;;;;;;6181433;23;19920;-82
2022/07/31 04:37:01;;;;;;;4.43;2.00;;;;;;;;;;6182328;23;20549;-82
2022/07/31 04:39:28;;;;;;;5.32;2.03;;;;;;;;;;6181660;23;20048;-82
2022/07/31 04:41:55;;;;;;;4.80;1.98;;;;;;;;;;6181124;23;20474;-83
2022/07/31 04:44:23;;;;;;;5.40;2.00;;;;;;;;;;6181619;23;20080;-82
2022/07/31 04:46:50;;;;;;;;;;;;;;;;;;6182226;23;20025;-82
2022/07/31 04:49:17;;;;;;;7.68;2.05;;;;;;;;;;6182327;23;20301;-82
2022/07/31 04:51:45;;;;;;;6.55;2.05;;;;;;;;;;6181121;23;20100;-82
2022/07/31 04:54:12;;;;;;;4.32;2.00;;;;;;;;;;6179205;23;20025;-81
2022/07/31 04:56:43;;;;;;;3.50;1.75;;;;;;;;;;6181142;23;20044;-82
2022/07/31 04:59:11;;;;;;;6.25;2.03;;;;;;;;;;6181662;23;20028;-82
2022/07/31 05:01:39;;;;;;;7.57;1.90;;;;;;;;;;6180229;23;20025;-82
2022/07/31 05:04:08;;;;;;;4.85;1.95;;;;;;;;;;6181935;23;20406;-82
2022/07/31 05:06:39;;;;;;;5.18;1.88;;;;;;;;;;6179923;23;20029;-82
2022/07/31 05:09:07;;;;;;;6.63;2.28;;;;;;;;;;6181211;23;20478;-82
2022/07/31 05:11:41;;;;;;;5.70;1.77;;;;;;;;;;6184029;23;20475;-82
2022/07/31 05:14:10;;;;;;;4.07;1.77;;;;;;;;;;6181696;23;20029;-81
2022/07/31 05:16:37;;;;;;;10.43;2.25;;;;;;;;;;6181737;23;20033;-81
2022/07/31 05:19:04;;;;;;;;;;;;;;;;;;6182161;23;20405;-80
2022/07/31 05:21:32;;;;;;;3.28;1.80;;;;;;;;;;6179393;23;19920;-81
2022/07/31 05:24:18;;;;;;;5.85;2.25;;;;;;;;;;6181094;23;20095;-81
2022/07/31 05:26:59;;;;;;;5.22;1.80;;;;;;;;;;6179456;23;20039;-82
2022/07/31 05:29:27;;;;;;;4.95;2.17;;;;;;;;;;6180580;23;20471;-82
2022/07/31 05:31:55;;;;;;;5.55;2.15;;;;;;;;;;6180694;23;20087;-83
2022/07/31 05:34:36;;;;;;;8.60;2.10;;;;;;;;;;6181074;23;20421;-81
2022/07/31 05:37:03;;;;;;;5.72;2.00;;;;;;;;;;6180200;23;20029;-82
2022/07/31 05:39:30;;;;;;;8.75;2.42;;;;;;;;;;6179144;23;20466;-81
2022/07/31 05:41:58;;;;;;;2.58;1.95;;;;;;;;;;6180247;23;20087;-83
2022/07/31 05:44:25;;;;;;;8.75;2.30;;;;;;;;;;6178716;23;20044;-82
2022/07/31 05:46:52;;;;;;;7.38;1.83;;;;;;;;;;6178268;23;20033;-82
2022/07/31 05:49:19;;;;;;;8.02;2.08;;;;;;;;;;6181816;23;20037;-82
2022/07/31 05:51:47;;;;;;;4.38;2.10;;;;;;;;;;6181019;23;20119;-82
2022/07/31 05:54:14;;;;;;;6.32;2.50;;;;;;;;;;6180837;23;20048;-82
2022/07/31 05:56:41;;;;;;;7.13;2.30;;;;;;;;;;6180760;23;20025;-83
2022/07/31 05:59:08;;;;;;;;;;;;;;;;;;6180081;23;20087;-82
2022/07/31 06:01:36;;;;;;;7.03;2.22;;;;;;;;;;6180874;23;20383;-83
2022/07/31 06:04:03;;;;;;;;;;;;;;;;;;6182396;23;20382;-82
2022/07/31 06:06:30;;;;;;;7.85;2.13;;;;;;;;;;6179928;23;19935;-82
2022/07/31 06:08:58;;;;;;;5.60;1.80;;;;;;;;;;6182054;23;20087;-83
2022/07/31 06:11:30;;;;;;;5.57;1.70;;;;;;;;;;6180595;23;20025;-82
2022/07/31 06:13:58;;;;;;;;;;;;;;;;;;6182377;23;20044;-83
2022/07/31 06:16:25;;;;;;;9.93;2.00;;;;;;;;;;6181009;23;20325;-83
2022/07/31 06:18:52;;;;;;;4.63;1.67;;;;;;;;;;6180267;23;20434;-82
2022/07/31 06:21:20;;;;;;;;;;;;;;;;;;6182321;23;20079;-83
2022/07/31 06:23:46;;;;;;;8.82;1.90;;;;;;;;;;6179368;23;19905;-83
2022/07/31 06:26:14;;;;;;;3.83;1.80;;;;;;;;;;6180824;23;20350;-84
2022/07/31 06:28:41;;;;;;;6.40;1.92;;;;;;;;;;6180742;23;20565;-83
2022/07/31 06:31:21;;;;;;;6.85;2.30;;;;;;;;;;6180912;23;20028;-83
2022/07/31 06:33:49;;;;;;;7.93;1.67;;;;;;;;;;6180583;23;20021;-83
2022/07/31 06:36:18;;;;;;;7.43;1.77;;;;;;;;;;6181957;23;20082;-84
2022/07/31 06:38:46;;;;;;;3.13;1.80;;;;;;;;;;6179796;23;20474;-83
2022/07/31 06:41:43;;;;;;;;;;;;;;;;;;6182231;23;20021;-82
2022/07/31 06:44:00;;;;;;;6.30;1.48;;;;;;;;;;6180758;23;20013;-83
2022/07/31 06:46:28;;;;;;;4.97;2.03;;;;;;;;;;6181633;23;20087;-83
2022/07/31 06:48:55;;;;;;;3.67;1.88;;;;;;;;;;6181122;23;20021;-81
2022/07/31 06:51:22;;;;;;;4.80;1.67;;;;;;;;;;6181488;23;20037;-83
2022/07/31 06:54:02;;;;;;;5.43;2.13;;;;;;;;;;6183065;23;20021;-83
2022/07/31 06:56:29;;;;;;;7.18;1.60;;;;;;;;;;6181258;23;20533;-81
2022/07/31 06:58:58;;;;;;;3.88;1.77;;;;;;;;;;6181351;23;20358;-87
2022/07/31 07:01:25;;;;;;;8.38;2.13;;;;;;;;;;6180217;23;20024;-84
2022/07/31 07:03:52;;;;;;;7.07;1.63;;;;;;;;;;6179901;23;20554;-83
2022/07/31 07:06:20;;;;;;;8.60;2.10;;;;;;;;;;6180496;23;20032;-83
2022/07/31 07:08:47;;;;;;;2.47;1.58;;;;;;;;;;6179760;23;20020;-83
2022/07/31 07:11:14;;;;;;;8.38;1.70;;;;;;;;;;6178831;23;20021;-84
2022/07/31 07:13:42;;;;;;;9.35;1.83;;;;;;;;;;6180241;23;20029;-85
2022/07/31 07:16:12;;;;;;;5.88;2.00;;;;;;;;;;6181411;23;20541;-84
2022/07/31 07:18:39;;;;;;;;;;;;;;;;;;6180276;23;20029;-85
2022/07/31 07:21:07;;;;;;;7.03;2.00;;;;;;;;;;6180995;23;19916;-84
2022/07/31 07:23:34;;;;;;;;;;;;;;;;;;6180959;23;20032;-85
2022/07/31 07:26:02;;;;;;;6.05;2.00;;;;;;;;;;6178529;23;19920;-83
2022/07/31 07:28:29;;;;;;;8.85;2.00;;;;;;;;;;6179582;23;20028;-84
2022/07/31 07:30:58;;;;;;;5.88;2.08;;;;;;;;;;6178774;23;20025;-84
2022/07/31 07:33:25;;;;;;;;;;;;;;;;;;6180496;23;20095;-85
2022/07/31 07:36:08;;;;;;;6.25;1.92;;;;;;;;;;6180744;23;19962;-83
2022/07/31 07:38:49;;;;;;;6.78;1.70;;;;;;;;;;6179718;23;20017;-84
2022/07/31 07:41:17;;;;;;;6.43;1.67;;;;;;;;;;6180465;23;20021;-84
2022/07/31 07:43:44;;;;;;;6.43;1.95;;;;;;;;;;6178484;23;20025;-82
2022/07/31 07:46:18;;;;;;;3.90;1.67;;;;;;;;;;6179768;23;20411;-85
2022/07/31 07:48:46;;;;;;;5.72;1.98;;;;;;;;;;6179502;23;20450;-84
2022/07/31 07:51:13;;;;;;;3.13;1.73;;;;;;;;;;6180343;23;20370;-84
2022/07/31 07:53:40;;;;;;;6.88;2.13;;;;;;;;;;6179454;23;20021;-84
2022/07/31 07:56:08;;;;;;;;;;;;;;;;;;6180590;23;20370;-84
2022/07/31 07:58:35;;;;;;;5.03;1.83;;;;;;;;;;6179390;23;19927;-84
2022/07/31 08:01:02;;;;;;;3.58;1.80;;;;;;;;;;6179739;23;20470;-84
2022/07/31 08:03:30;;;;;;;4.03;1.80;;;;;;;;;;6179524;23;20744;-84
2022/07/31 08:06:17;;;;;;;7.07;2.10;;;;;;;;;;6178667;23;20476;-83
2022/07/31 08:08:44;;;;;;;9.07;1.95;;;;;;;;;;6179023;23;20079;-83
2022/07/31 08:11:11;;;;;;;5.88;2.08;;;;;;;;;;6180512;23;20493;-83
2022/07/31 08:13:44;;;;;;;4.30;1.60;;;;;;;;;;6181110;23;20025;-85
2022/07/31 08:16:16;;;;;;;5.45;2.03;;;;;;;;;;6181946;23;20021;-84
2022/07/31 08:18:44;;;;;;;7.35;1.50;;;;;;;;;;6181279;23;20537;-86
2022/07/31 08:21:11;;;;;;;;;;;;;;;;;;6182938;23;20029;-86
2022/07/31 08:23:38;;;;;;;7.10;1.80;;;;;;;;;;6181297;23;19920;-85
2022/07/31 08:26:07;;;;;;;3.35;2.08;;;;;;;;;;6181961;23;20029;-86
2022/07/31 08:28:35;;;;;;;7.10;1.63;;;;;;;;;;6179437;23;20071;-84
2022/07/31 08:31:02;;;;;;;4.05;1.50;;;;;;;;;;6181765;23;20339;-83
2022/07/31 08:33:31;;;;;;;2.65;1.40;;;;;;;;;;6182648;23;20083;-83
2022/07/31 08:35:59;;;;;;;3.97;1.75;;;;;;;;;;6187550;23;20048;-82
2022/07/31 08:38:27;;;;;;;5.28;1.80;;;;;;;;;;6185927;23;20036;-85
2022/07/31 08:40:55;;;;;;;5.45;1.83;;;;;;;;;;6183280;23;20018;-84
2022/07/31 08:43:23;;;;;;;3.53;1.88;;;;;;;;;;6180528;23;20029;-85
2022/07/31 08:46:11;;;;;;;5.03;1.80;;;;;;;;;;6180979;23;20091;-84
2022/07/31 08:48:42;;;;;;;2.10;1.63;;;;;;;;;;6181361;23;20029;-85
2022/07/31 08:51:13;;;;;;;2.80;1.60;;;;;;;;;;6181278;23;20096;-85
2022/07/31 08:53:42;;;;;;;3.28;1.67;;;;;;;;;;6180234;23;20064;-84
2022/07/31 08:56:09;;;;;;;3.33;1.50;;;;;;;;;;6181589;23;20084;-85
2022/07/31 08:58:36;;;;;;;6.28;2.22;;;;;;;;;;6181454;23;20029;-86
2022/07/31 09:01:06;;;;;;;2.83;1.23;;;;;;;;;;6181954;23;20021;-84
2022/07/31 09:03:35;;;;;;;5.13;1.77;;;;;;;;;;6179962;23;20025;-86
2022/07/31 09:06:02;;;;;;;5.45;1.48;;;;;;;;;;6181146;23;20025;-83
2022/07/31 09:08:33;;;;;;;3.53;1.52;;;;;;;;;;6181971;23;20072;-88
2022/07/31 09:11:01;;;;;;;4.65;2.13;;;;;;;;;;6182235;23;20021;-86
2022/07/31 09:13:33;;;;;;;4.22;1.73;;;;;;;;;;6182332;23;20036;-86
2022/07/31 09:16:01;;;;;;;2.50;1.30;;;;;;;;;;6182637;23;20102;-82
2022/07/31 09:18:28;;;;;;;2.83;1.48;;;;;;;;;;6181355;23;20089;-87
2022/07/31 09:20:58;;;;;;;4.93;1.63;;;;;;;;;;6182149;23;20029;-86
2022/07/31 09:23:28;;;;;;;6.22;1.60;;;;;;;;;;6180283;23;20029;-86
2022/07/31 09:25:56;;;;;;;3.78;1.60;;;;;;;;;;6182380;23;20024;-86
2022/07/31 09:28:36;;;;;;;2.35;1.20;;;;;;;;;;6181810;23;20079;-87
2022/07/31 09:31:04;;;;;;;3.75;1.30;;;;;;;;;;6180407;23;20021;-87
2022/07/31 09:33:31;;;;;;;3.55;1.48;;;;;;;;;;6181856;23;20374;-87
2022/07/31 09:35:59;;;;;;;1.35;1.25;;;;;;;;;;6180954;23;20025;-86
2022/07/31 09:38:35;;;;;;;2.65;1.38;;;;;;;;;;6182093;23;20025;-86
2022/07/31 09:41:13;;;;;;;5.35;1.25;;;;;;;;;;6180560;23;20024;-85
2022/07/31 09:44:02;;;;;;;5.20;1.50;;;;;;;;;;6181801;23;20092;-84
2022/07/31 09:46:40;;;;;;;3.17;1.45;;;;;;;;;;6180607;23;20021;-85
2022/07/31 09:49:07;;;;;;;6.47;1.50;;;;;;;;;;6179129;23;20029;-85
2022/07/31 09:51:39;;;;;;;3.53;1.35;;;;;;;;;;6179258;23;20060;-86
2022/07/31 09:54:07;;;;;;;2.40;1.23;;;;;;;;;;6179849;23;20044;-85
2022/07/31 09:56:35;;;;;;;1.92;1.23;;;;;;;;;;6180304;23;20025;-86
2022/07/31 09:59:05;;;;;;;3.05;1.35;;;;;;;;;;6181640;23;20103;-85
2022/07/31 10:01:35;;;;;;;6.47;1.40;;;;;;;;;;6177790;23;20533;-85
2022/07/31 10:04:04;;;;;;;2.80;1.20;;;;;;;;;;6180180;23;20430;-84
2022/07/31 10:06:34;;;;;;;5.30;1.50;;;;;;;;;;6180566;23;20025;-86
2022/07/31 10:09:02;;;;;;;2.80;1.33;;;;;;;;;;6180299;23;20020;-84
2022/07/31 10:11:31;;;;;;;3.17;1.40;;;;;;;;;;6180766;23;20032;-86
2022/07/31 10:14:02;;;;;;;1.20;1.10;;;;;;;;;;6180884;23;20021;-87
2022/07/31 10:16:34;;;;;;;4.72;1.30;;;;;;;;;;6180892;23;20025;-88
2022/07/31 10:19:09;;;;;;;1.80;1.60;;;;;;;;;;6180560;23;20461;-85
2022/07/31 10:21:43;;;;;;;1.27;0.80;;;;;;;;;;6181368;23;20533;-86
2022/07/31 10:24:11;;;;;;;3.42;1.10;;;;;;;;;;6180664;23;20119;-87
2022/07/31 10:26:41;;;;;;;2.05;1.00;;;;;;;;;;6185190;23;20044;-85
2022/07/31 10:29:27;;;;;;;1.85;1.10;;;;;;;;;;6188451;23;20021;-89
2022/07/31 10:31:59;;;;;;;1.42;0.95;;;;;;;;;;6182018;23;20135;-87
2022/07/31 10:34:26;;;;;;;1.52;0.95;;;;;;;;;;6181276;23;20013;-86
2022/07/31 10:36:55;;;;;;;2.30;1.00;;;;;;;;;;6181170;23;20029;-85
2022/07/31 10:39:41;;;;;;;1.20;1.00;;;;;;;;;;6181221;23;20017;-87
2022/07/31 10:42:12;;;;;;;2.30;1.00;;;;;;;;;;6179873;23;20099;-88
2022/07/31 10:44:44;;;;;;;1.13;0.90;;;;;;;;;;6179945;23;20061;-87
2022/07/31 10:47:15;;;;;;;2.47;1.00;;;;;;;;;;6179563;23;20021;-87
2022/07/31 10:49:44;;;;;;;7.70;1.35;;;;;;;;;;6179487;23;20036;-86
2022/07/31 10:52:11;;;;;;;3.78;1.05;;;;;;;;;;6178952;23;20067;-89
2022/07/31 10:54:38;;;;;;;;;;;;;;;;;;6180911;23;20455;-86
2022/07/31 10:57:06;;;;;;;2.05;1.05;;;;;;;;;;6180521;23;19979;-87
2022/07/31 10:59:33;;;;;;;2.55;1.20;;;;;;;;;;6180782;23;20500;-88
2022/07/31 11:02:01;;;;;;;2.05;0.80;;;;;;;;;;6179873;23;20028;-88
2022/07/31 11:04:31;;;;;;;1.17;0.90;;;;;;;;;;6179412;23;20036;-87
2022/07/31 11:06:59;;;;;;;0.85;0.80;;;;;;;;;;6178523;23;20023;-88
2022/07/31 11:09:26;;;;;;;;;;;;;;;;;;6180459;23;20048;-87
2022/07/31 11:11:55;;;;;;;3.70;1.20;;;;;;;;;;6179080;23;19974;-85
2022/07/31 11:14:22;;;;;;;;;;;;;;;;;;6181221;23;20049;-87
2022/07/31 11:16:54;;;;;;;2.85;0.93;;;;;;;;;;6180285;23;19967;-86
2022/07/31 11:19:22;;;;;;;1.08;0.90;;;;;;;;;;6176473;23;20332;-87
2022/07/31 11:21:49;;;;;;;2.67;1.35;;;;;;;;;;6180932;23;20071;-88
2022/07/31 11:24:20;;;;;;;2.97;1.15;;;;;;;;;;6179688;23;20063;-90
2022/07/31 11:26:53;;;;;;;4.35;1.15;;;;;;;;;;6180853;23;20355;-87
2022/07/31 11:29:39;;;;;;;2.42;1.20;;;;;;;;;;6177543;23;20063;-90
2022/07/31 11:32:26;;;;;;;1.10;0.90;;;;;;;;;;6178028;23;20040;-89
2022/07/31 11:34:54;;;;;;;3.50;1.30;;;;;;;;;;6180241;23;20025;-87
2022/07/31 11:37:23;;;;;;;2.83;1.05;;;;;;;;;;6179051;23;20037;-85
2022/07/31 11:39:51;;;;;;;0.90;0.73;;;;;;;;;;6179966;23;20387;-87
2022/07/31 11:42:19;;;;;;;7.53;1.63;;;;;;;;;;6178428;23;20028;-88
2022/07/31 11:45:00;;;;;;;3.22;1.08;;;;;;;;;;6179650;23;20025;-88
2022/07/31 11:47:40;;;;;;;1.70;1.20;;;;;;;;;;6180353;23;20024;-89
2022/07/31 11:50:30;;;;;;;1.33;0.95;;;;;;;;;;6179643;23;20021;-88
2022/07/31 11:53:05;;;;;;;1.35;1.10;;;;;;;;;;6178471;23;20029;-90
2022/07/31 11:55:43;;;;;;;2.28;1.00;;;;;;;;;;6178645;23;20397;-85
2022/07/31 11:58:10;;;;;;;2.63;0.90;;;;;;;;;;6179806;23;20075;-86
2022/07/31 12:00:38;;;;;;;1.40;0.88;;;;;;;;;;6179671;23;20474;-87
2022/07/31 12:03:08;;;;;;;1.40;1.05;;;;;;;;;;6179055;23;20029;-87
2022/07/31 12:05:43;;;;;;;1.70;0.95;;;;;;;;;;6179851;23;20028;-86
2022/07/31 12:08:11;;;;;;;1.55;1.02;;;;;;;;;;6177953;23;20402;-88
2022/07/31 12:10:39;;;;;;;0.93;0.88;;;;;;;;;;6180540;23;20144;-85
2022/07/31 12:13:10;;;;;;;3.00;1.20;;;;;;;;;;6178938;23;20466;-87
2022/07/31 12:15:53;;;;;;;3.78;1.00;;;;;;;;;;6177423;23;20021;-84
2022/07/31 12:18:20;;;;;;;;;;;;;;;;;;6179338;23;20489;-87
2022/07/31 12:20:54;;;;;;;1.95;1.20;;;;;;;;;;6179438;23;19916;-87
2022/07/31 12:23:21;;;;;;;2.22;0.90;;;;;;;;;;6177274;23;20021;-89
2022/07/31 12:26:08;;;;;;;1.13;0.82;;;;;;;;;;6178270;23;20025;-86
2022/07/31 12:28:35;;;;;;;1.35;1.10;;;;;;;;;;6178676;23;20021;-85
2022/07/31 12:31:02;;;;;;;;;;;;;;;;;;6181148;23;20552;-86
2022/07/31 12:33:39;;;;;;;1.35;0.82;;;;;;;;;;6179902;23;19924;-86
2022/07/31 12:36:11;;;;;;;2.13;1.20;;;;;;;;;;6179891;23;20017;-87
2022/07/31 12:38:39;;;;;;;3.03;1.05;;;;;;;;;;6180027;23;20025;-88
2022/07/31 12:41:12;;;;;;;1.95;1.02;;;;;;;;;;6180338;23;20020;-86
2022/07/31 12:43:40;;;;;;;3.92;1.20;;;;;;;;;;6179823;23;20021;-88
2022/07/31 12:46:35;;;;;;;6.07;1.08;;;;;;;;;;6181044;23;20043;-86
2022/07/31 12:49:04;;;;;;;1.25;1.08;;;;;;;;;;6178454;23;20463;-87
2022/07/31 12:51:32;;;;;;;2.47;0.85;;;;;;;;;;6179517;23;20351;-85
2022/07/31 12:54:13;;;;;;;2.03;1.00;;;;;;;;;;6180226;23;20021;-88
2022/07/31 12:56:42;;;;;;;1.20;0.93;;;;;;;;;;6178893;23;20075;-86
2022/07/31 12:59:09;;;;;;;4.32;1.00;;;;;;;;;;6179056;23;20079;-88
2022/07/31 13:01:37;;;;;;;0.90;0.75;;;;;;;;;;6182308;23;20052;-88
2022/07/31 13:04:05;;;;;;;1.27;0.95;;;;;;;;;;6180231;23;20021;-88
2022/07/31 13:06:47;;;;;;;1.52;1.05;;;;;;;;;;6180895;23;20517;-87
2022/07/31 13:09:14;;;;;;;1.67;1.08;;;;;;;;;;6181672;23;20036;-88
2022/07/31 13:11:42;;;;;;;1.20;1.10;;;;;;;;;;6181197;23;20025;-86
2022/07/31 13:14:18;;;;;;;3.80;1.20;;;;;;;;;;6182187;23;20489;-85
2022/07/31 13:16:46;;;;;;;2.10;1.33;;;;;;;;;;6182134;23;20045;-87
2022/07/31 13:19:14;;;;;;;4.28;1.27;;;;;;;;;;6180252;23;20033;-85
2022/07/31 13:21:42;;;;;;;2.47;0.82;;;;;;;;;;6180169;23;20021;-86
2022/07/31 13:24:16;;;;;;;3.95;1.30;;;;;;;;;;6182179;23;20454;-84
2022/07/31 13:26:44;;;;;;;1.10;1.00;;;;;;;;;;6181885;23;20024;-87
2022/07/31 13:29:11;;;;;;;1.45;0.93;;;;;;;;;;6182507;23;20032;-86
2022/07/31 13:31:39;;;;;;;;;;;;;;;;;;6180785;23;20025;-87
2022/07/31 13:34:06;;;;;;;4.15;1.20;;;;;;;;;;6181248;23;20329;-87
2022/07/31 13:36:34;;;;;;;3.13;1.10;;;;;;;;;;6181782;23;20053;-85
2022/07/31 13:39:06;;;;;;;3.35;1.63;;;;;;;;;;6182297;23;20405;-87
2022/07/31 13:41:34;;;;;;;2.65;1.40;;;;;;;;;;6182488;23;20025;-87
2022/07/31 13:44:05;;;;;;;1.95;0.93;;;;;;;;;;6181710;23;20021;-87
2022/07/31 13:46:33;;;;;;;2.53;1.10;;;;;;;;;;6179092;23;20021;-87
2022/07/31 13:49:00;;;;;;;3.17;1.33;;;;;;;;;;6180603;23;20072;-84
2022/07/31 13:51:29;;;;;;;1.55;1.20;;;;;;;;;;6181794;23;20021;-88
2022/07/31 13:53:56;;;;;;;3.03;1.25;;;;;;;;;;6180106;23;20083;-87
2022/07/31 13:56:23;;;;;;;1.40;1.05;;;;;;;;;;6181619;23;20020;-88
2022/07/31 13:59:08;;;;;;;2.63;1.00;;;;;;;;;;6183078;23;20028;-87
2022/07/31 14:01:37;;;;;;;3.72;1.10;;;;;;;;;;6180978;23;20474;-87
2022/07/31 14:04:25;;;;;;;1.30;1.15;;;;;;;;;;6181275;23;20104;-84
2022/07/31 14:06:58;;;;;;;2.97;0.88;;;;;;;;;;6181005;23;20013;-87
2022/07/31 14:09:27;;;;;;;2.53;1.30;;;;;;;;;;6181595;23;20355;-86
2022/07/31 14:11:54;;;;;;;2.10;1.27;;;;;;;;;;6181483;23;20099;-86
2022/07/31 14:14:22;;;;;;;0.75;0.75;;;;;;;;;;6181760;23;20067;-86
2022/07/31 14:16:50;;;;;;;2.78;1.30;;;;;;;;;;6183349;23;20021;-87
2022/07/31 14:19:17;;;;;;;1.17;0.90;;;;;;;;;;6179930;23;20029;-87
2022/07/31 14:21:44;;;;;;;5.60;1.10;;;;;;;;;;6182133;23;20049;-86
2022/07/31 14:24:22;;;;;;;1.20;0.93;;;;;;;;;;6181799;23;20021;-88
2022/07/31 14:26:50;;;;;;;2.08;1.20;;;;;;;;;;6181651;23;20021;-87
2022/07/31 14:29:17;;;;;;;;;;;;;;;;;;6182742;23;20052;-86
2022/07/31 14:31:44;;;;;;;1.58;1.00;;;;;;;;;;6182006;23;20258;-86
2022/07/31 14:34:11;;;;;;;2.42;1.20;;;;;;;;;;6181073;23;20032;-88
2022/07/31 14:36:39;;;;;;;4.90;1.20;;;;;;;;;;6182053;23;20052;-88
2022/07/31 14:39:06;;;;;;;4.00;1.27;;;;;;;;;;6180829;23;20173;-85
2022/07/31 14:41:33;;;;;;;1.40;1.20;;;;;;;;;;6181590;23;20079;-87
2022/07/31 14:44:01;;;;;;;3.45;1.25;;;;;;;;;;6181155;23;20092;-86
2022/07/31 14:46:28;;;;;;;1.77;1.02;;;;;;;;;;6180752;23;20029;-86
2022/07/31 14:48:55;;;;;;;1.45;1.25;;;;;;;;;;6179459;23;20075;-83
2022/07/31 14:51:23;;;;;;;6.82;1.83;;;;;;;;;;6180062;23;20356;-88
2022/07/31 14:53:51;;;;;;;;;;;;;;;;;;6179947;23;20032;-87
2022/07/31 14:56:18;;;;;;;4.93;1.40;;;;;;;;;;6180866;23;20412;-86
2022/07/31 14:59:06;;;;;;;3.33;1.17;;;;;;;;;;6181966;23;20517;-87
2022/07/31 15:01:33;;;;;;;3.47;1.48;;;;;;;;;;6181341;23;20052;-86
2022/07/31 15:04:01;;;;;;;2.88;0.93;;;;;;;;;;6180616;23;20462;-85
2022/07/31 15:06:28;;;;;;;;;;;;;;;;;;6180088;23;20092;-85